Time;durP1;ratioP1;P1;durP2;ratioP2;P2;SDS_P1;SDS_P2;PMS_P1;PMS_P2;Temp;Humidity;BMP_temperature;BMP_pressure;BME280_temperature;BME280_humidity;BME280_pressure;Samples;Min_cycle;Max_cycle;Signal;HPM_P1;HPM_P2
2022/03/06 00:00:32;;;;;;;4.60;2.65;;;;;;;-4.39;100.00;99665.72;5133007;28;20099;-61
2022/03/06 00:03:01;;;;;;;6.10;2.78;;;;;;;-4.43;100.00;99661.91;5133024;28;20439;-61
2022/03/06 00:05:28;;;;;;;5.75;3.15;;;;;;;-4.40;100.00;99674.78;5132771;28;20123;-61
2022/03/06 00:07:56;;;;;;;6.57;2.97;;;;;;;-4.42;100.00;99674.25;5132979;28;20133;-62
2022/03/06 00:10:22;;;;;;;6.78;2.90;;;;;;;-4.46;100.00;99679.31;5132477;28;20043;-61
2022/03/06 00:12:49;;;;;;;5.80;3.20;;;;;;;-4.44;100.00;99679.06;5133079;28;20426;-61
2022/03/06 00:15:15;;;;;;;6.40;3.38;;;;;;;-4.46;100.00;99689.19;5132620;28;20051;-61
2022/03/06 00:17:41;;;;;;;7.85;3.67;;;;;;;-4.47;100.00;99699.09;5132492;28;20047;-61
2022/03/06 00:20:09;;;;;;;9.95;3.60;;;;;;;-4.44;100.00;99700.47;5132507;28;20043;-62
2022/03/06 00:22:36;;;;;;;6.75;3.75;;;;;;;-4.51;100.00;99703.34;5132490;28;20047;-61
2022/03/06 00:25:02;;;;;;;6.32;2.78;;;;;;;-4.49;100.00;99714.59;5132692;27;20145;-61
2022/03/06 00:27:29;;;;;;;3.65;2.90;;;;;;;-4.52;100.00;99715.13;5132293;28;20051;-61
2022/03/06 00:29:55;;;;;;;7.43;3.83;;;;;;;-4.51;100.00;99736.25;5132658;28;20051;-61
2022/03/06 00:32:22;;;;;;;8.13;3.63;;;;;;;-4.45;100.00;99741.66;5132345;28;20055;-62
2022/03/06 00:34:48;;;;;;;5.65;2.92;;;;;;;-4.46;100.00;99742.72;5132650;28;20055;-61
2022/03/06 00:37:15;;;;;;;5.18;2.90;;;;;;;-4.47;100.00;99743.78;5132574;28;20496;-61
2022/03/06 00:39:42;;;;;;;4.95;2.83;;;;;;;-4.55;100.00;99745.03;5132265;28;20047;-61
2022/03/06 00:42:09;;;;;;;7.72;3.92;;;;;;;-4.58;100.00;99748.22;5132287;28;20051;-61
2022/03/06 00:44:35;;;;;;;4.72;3.13;;;;;;;-4.58;100.00;99762.41;5132268;28;20078;-62
2022/03/06 00:47:02;;;;;;;8.82;3.40;;;;;;;-4.61;100.00;99762.91;5132034;28;20421;-61
2022/03/06 00:49:28;;;;;;;9.27;3.30;;;;;;;-4.59;100.00;99782.19;5132046;28;20047;-61
2022/03/06 00:51:54;;;;;;;6.28;3.20;;;;;;;-4.65;100.00;99779.72;5132290;28;20066;-61
2022/03/06 00:54:21;;;;;;;5.25;3.22;;;;;;;-4.68;100.00;99789.03;5132036;28;20058;-62
2022/03/06 00:56:48;;;;;;;7.90;3.40;;;;;;;-4.67;100.00;99796.00;5132278;28;20506;-61
2022/03/06 00:59:14;;;;;;;8.45;3.13;;;;;;;-4.66;100.00;99813.69;5131845;28;20047;-61
2022/03/06 01:01:41;;;;;;;8.13;3.78;;;;;;;-4.68;100.00;99823.81;5131837;28;20498;-61
2022/03/06 01:04:08;;;;;;;5.63;3.60;;;;;;;-4.71;100.00;99828.88;5131807;28;20047;-61
2022/03/06 01:06:34;;;;;;;5.68;3.63;;;;;;;-4.72;100.00;99836.09;5131869;28;20473;-61
2022/03/06 01:09:00;;;;;;;6.65;3.40;;;;;;;-4.68;100.00;99844.41;5131465;28;20522;-62
2022/03/06 01:11:27;;;;;;;8.93;3.05;;;;;;;-4.74;100.00;99844.34;5131765;28;20499;-61
2022/03/06 01:13:53;;;;;;;6.07;3.38;;;;;;;-4.73;100.00;99850.53;5131606;28;20050;-61
2022/03/06 01:16:20;;;;;;;9.77;3.63;;;;;;;-4.81;100.00;99848.25;5131560;28;20046;-62
2022/03/06 01:18:46;;;;;;;7.93;3.50;;;;;;;-4.81;100.00;99865.13;5131973;28;20047;-61
2022/03/06 01:21:12;;;;;;;6.88;3.22;;;;;;;-4.79;100.00;99878.25;5131582;28;20054;-61
2022/03/06 01:23:38;;;;;;;5.00;3.45;;;;;;;-4.79;100.00;99887.09;5131831;28;20047;-62
2022/03/06 01:26:05;;;;;;;6.35;3.63;;;;;;;-4.78;100.00;99894.03;5131327;28;20047;-61
2022/03/06 01:28:32;;;;;;;9.70;3.20;;;;;;;-4.79;100.00;99902.34;5131823;28;20073;-61
2022/03/06 01:30:58;;;;;;;8.18;3.80;;;;;;;-4.80;100.00;99908.72;5131565;28;20057;-61
2022/03/06 01:33:24;;;;;;;7.65;3.90;;;;;;;-4.77;100.00;99918.94;5131453;28;20074;-61
2022/03/06 01:35:51;;;;;;;8.38;3.70;;;;;;;-4.83;100.00;99912.72;5130593;27;20054;-61
2022/03/06 01:38:17;;;;;;;6.97;3.63;;;;;;;-4.79;100.00;99921.06;5131270;28;20047;-61
2022/03/06 01:40:43;;;;;;;7.13;3.95;;;;;;;-4.84;100.00;99919.09;5131205;28;20057;-61
2022/03/06 01:43:09;;;;;;;7.97;3.47;;;;;;;-4.85;100.00;99914.00;5131215;28;20047;-61
2022/03/06 01:45:36;;;;;;;7.78;3.67;;;;;;;-4.90;100.00;99920.06;5131778;28;20061;-61
2022/03/06 01:48:08;;;;;;;10.07;4.05;;;;;;;-4.91;100.00;99929.16;5131427;28;20472;-61
2022/03/06 01:50:34;;;;;;;9.20;3.22;;;;;;;-4.90;100.00;99932.63;5131611;28;20130;-61
2022/03/06 01:53:03;;;;;;;6.93;3.38;;;;;;;-4.90;100.00;99927.28;5131049;28;20051;-61
2022/03/06 01:55:31;;;;;;;7.30;3.20;;;;;;;-4.91;100.00;99931.03;5131403;28;20050;-61
2022/03/06 01:58:00;;;;;;;9.10;4.05;;;;;;;-4.91;100.00;99931.03;5131163;28;20096;-61
2022/03/06 02:00:28;;;;;;;6.25;3.45;;;;;;;-4.91;100.00;99912.31;5130975;28;20521;-61
2022/03/06 02:02:56;;;;;;;9.10;3.55;;;;;;;-4.89;100.00;99918.22;5130963;28;20077;-61
2022/03/06 02:05:22;;;;;;;10.57;4.05;;;;;;;-4.91;100.00;99915.78;5130742;28;20054;-61
2022/03/06 02:07:48;;;;;;;7.50;4.20;;;;;;;-4.88;100.00;99917.97;5131021;28;20058;-61
2022/03/06 02:10:14;;;;;;;7.53;3.95;;;;;;;-4.92;100.00;99902.66;5130412;28;20043;-61
2022/03/06 02:12:42;;;;;;;5.32;3.33;;;;;;;-4.93;100.00;99911.72;5131181;28;20100;-61
2022/03/06 02:15:10;;;;;;;8.32;3.83;;;;;;;-4.89;100.00;99913.69;5130876;28;20294;-61
2022/03/06 02:17:37;;;;;;;6.78;3.35;;;;;;;-4.93;100.00;99909.06;5131153;28;20058;-61
2022/03/06 02:20:07;;;;;;;11.18;5.25;;;;;;;-4.95;100.00;99906.63;5130579;28;20043;-61
2022/03/06 02:22:35;;;;;;;8.50;3.97;;;;;;;-4.98;100.00;99905.25;5131000;28;20059;-61
2022/03/06 02:25:04;;;;;;;7.43;4.05;;;;;;;-5.01;100.00;99903.06;5130644;28;20413;-61
2022/03/06 02:27:31;;;;;;;8.13;3.53;;;;;;;-4.92;100.00;99900.81;5130558;28;20057;-61
2022/03/06 02:29:57;;;;;;;7.72;3.80;;;;;;;-4.95;100.00;99893.28;5130668;28;20530;-61
2022/03/06 02:32:24;;;;;;;10.05;4.57;;;;;;;-4.97;100.00;99885.47;5130621;28;20043;-61
2022/03/06 02:34:52;;;;;;;12.55;3.92;;;;;;;-5.02;100.00;99879.25;5130695;28;20055;-61
2022/03/06 02:37:19;;;;;;;9.43;4.18;;;;;;;-5.04;100.00;99887.50;5130440;28;20092;-61
2022/03/06 02:39:48;;;;;;;8.07;4.45;;;;;;;-5.10;100.00;99891.16;5130426;28;20047;-61
2022/03/06 02:42:24;;;;;;;8.18;4.13;;;;;;;-5.12;100.00;99911.19;5130314;28;20051;-61
2022/03/06 02:44:50;;;;;;;9.43;4.32;;;;;;;-5.14;100.00;99906.06;5130314;28;20067;-61
2022/03/06 02:47:17;;;;;;;10.25;3.80;;;;;;;-5.11;100.00;99926.16;5130232;27;20080;-61
2022/03/06 02:49:43;;;;;;;8.10;4.80;;;;;;;-5.15;100.00;99928.53;5133625;28;20498;-61
2022/03/06 02:52:09;;;;;;;8.02;4.32;;;;;;;-5.15;100.00;99930.38;5134034;28;20053;-62
2022/03/06 02:54:36;;;;;;;8.35;4.40;;;;;;;-5.19;100.00;99935.41;5134033;28;20051;-61
2022/03/06 02:57:04;;;;;;;9.80;4.65;;;;;;;-5.15;100.00;99947.22;5134002;28;20391;-61
2022/03/06 02:59:30;;;;;;;8.27;4.72;;;;;;;-5.19;100.00;99951.44;5133804;28;20051;-61
2022/03/06 03:01:56;;;;;;;8.48;4.35;;;;;;;-5.22;100.00;99955.41;5133958;28;20047;-61
2022/03/06 03:04:22;;;;;;;7.10;4.03;;;;;;;-5.17;100.00;99967.22;5133694;28;20425;-61
2022/03/06 03:06:50;;;;;;;8.25;3.95;;;;;;;-5.17;100.00;99964.56;5133835;28;20438;-61
2022/03/06 03:09:19;;;;;;;9.05;3.72;;;;;;;-5.21;100.00;99969.59;5133290;28;20057;-61
2022/03/06 03:11:46;;;;;;;9.63;4.40;;;;;;;-5.22;100.00;99966.09;5134086;28;20047;-61
2022/03/06 03:14:14;;;;;;;6.78;3.88;;;;;;;-5.29;100.00;99968.13;5133383;28;20529;-61
2022/03/06 03:16:41;;;;;;;6.82;4.00;;;;;;;-5.29;100.00;99972.66;5133472;28;20047;-61
2022/03/06 03:19:07;;;;;;;10.15;4.55;;;;;;;-5.35;100.00;99978.97;5133661;28;20046;-61
2022/03/06 03:21:33;;;;;;;9.10;4.28;;;;;;;-5.34;100.00;99986.72;5133957;28;20047;-61
2022/03/06 03:24:00;;;;;;;10.82;4.57;;;;;;;-5.32;100.00;99998.00;5133422;28;20050;-61
2022/03/06 03:26:26;;;;;;;6.00;4.03;;;;;;;-5.30;100.00;100011.94;5133270;28;20049;-61
2022/03/06 03:28:53;;;;;;;6.95;4.05;;;;;;;-5.27;100.00;100019.47;5133659;28;20433;-61
2022/03/06 03:31:20;;;;;;;12.75;5.15;;;;;;;-5.30;100.00;100022.63;5133484;28;20088;-61
2022/03/06 03:33:46;;;;;;;7.82;4.20;;;;;;;-5.28;100.00;100012.50;5133214;28;20050;-61
2022/03/06 03:36:13;;;;;;;12.15;4.72;;;;;;;-5.33;100.00;100015.09;5133353;28;20051;-62
2022/03/06 03:38:40;;;;;;;10.75;4.25;;;;;;;-5.35;100.00;100016.38;5133801;28;20047;-61
2022/03/06 03:41:06;;;;;;;15.00;4.68;;;;;;;-5.37;100.00;100019.28;5133412;28;20055;-61
2022/03/06 03:43:33;;;;;;;6.82;4.53;;;;;;;-5.39;100.00;100013.38;5133667;28;20046;-61
2022/03/06 03:45:59;;;;;;;9.45;4.05;;;;;;;-5.40;100.00;100019.75;5133353;28;20055;-61
2022/03/06 03:48:27;;;;;;;7.68;4.20;;;;;;;-5.40;100.00;100016.28;5133282;28;20062;-61
2022/03/06 03:50:54;;;;;;;9.50;4.28;;;;;;;-5.41;100.00;100023.47;5133531;28;20047;-61
2022/03/06 03:53:21;;;;;;;10.77;4.85;;;;;;;-5.40;100.00;100022.41;5133235;28;20606;-61
2022/03/06 03:55:47;;;;;;;7.95;3.70;;;;;;;-5.42;100.00;100013.03;5133530;28;20054;-61
2022/03/06 03:58:14;;;;;;;10.52;4.13;;;;;;;-5.42;100.00;100013.84;5133108;27;20400;-61
2022/03/06 04:00:40;;;;;;;12.35;5.00;;;;;;;-5.45;100.00;100014.31;5132885;28;20051;-61
2022/03/06 04:03:07;;;;;;;8.23;4.10;;;;;;;-5.42;100.00;100008.50;5132996;28;20074;-61
2022/03/06 04:05:33;;;;;;;7.57;4.03;;;;;;;-5.43;100.00;100012.25;5133142;28;20051;-62
2022/03/06 04:08:00;;;;;;;9.38;4.72;;;;;;;-5.41;100.00;100010.13;5132653;28;20055;-61
2022/03/06 04:10:26;;;;;;;8.65;4.95;;;;;;;-5.40;100.00;100013.59;5132128;28;20043;-61
2022/03/06 04:12:52;;;;;;;7.13;4.00;;;;;;;-5.40;100.00;100017.06;5132766;28;20051;-61
2022/03/06 04:15:19;;;;;;;9.50;3.88;;;;;;;-5.39;100.00;100007.22;5132649;28;20051;-61
2022/03/06 04:17:45;;;;;;;7.63;3.90;;;;;;;-5.40;100.00;100003.72;5132931;28;20450;-61
2022/03/06 04:20:12;;;;;;;6.18;3.78;;;;;;;-5.42;100.00;100010.38;5132633;28;20502;-61
2022/03/06 04:22:39;;;;;;;11.30;4.13;;;;;;;-5.38;100.00;100009.66;5132581;28;20051;-61
2022/03/06 04:25:05;;;;;;;9.07;4.43;;;;;;;-5.41;100.00;100010.13;5132350;28;20051;-61
2022/03/06 04:27:31;;;;;;;9.05;4.60;;;;;;;-5.41;100.00;100007.44;5132495;28;20043;-61
2022/03/06 04:29:58;;;;;;;11.10;5.35;;;;;;;-5.39;100.00;100010.69;5132380;28;20047;-62
2022/03/06 04:32:24;;;;;;;10.90;4.15;;;;;;;-5.41;100.00;100010.13;5132382;28;20054;-61
2022/03/06 04:34:51;;;;;;;8.80;5.00;;;;;;;-5.37;100.00;99995.22;5132339;28;20055;-61
2022/03/06 04:37:17;;;;;;;9.25;4.63;;;;;;;-5.40;100.00;99994.88;5132330;28;20418;-61
2022/03/06 04:39:44;;;;;;;9.73;4.75;;;;;;;-5.38;100.00;100003.50;5132142;28;20510;-62
2022/03/06 04:42:10;;;;;;;10.93;5.63;;;;;;;-5.38;100.00;99998.97;5132185;28;20043;-61
2022/03/06 04:44:37;;;;;;;10.43;4.25;;;;;;;-5.37;100.00;99999.75;5132166;28;20046;-61
2022/03/06 04:47:04;;;;;;;8.88;4.88;;;;;;;-5.34;100.00;99991.25;5132168;28;20051;-61
2022/03/06 04:49:30;;;;;;;10.93;5.10;;;;;;;-5.31;100.00;99990.78;5132172;28;20047;-61
2022/03/06 04:51:56;;;;;;;9.50;4.93;;;;;;;-5.28;100.00;99982.28;5132035;28;20051;-61
2022/03/06 04:54:23;;;;;;;9.32;4.68;;;;;;;-5.24;100.00;99984.22;5132056;28;20062;-62
2022/03/06 04:56:50;;;;;;;10.48;4.65;;;;;;;-5.26;100.00;99983.69;5132072;28;20058;-62
2022/03/06 04:59:16;;;;;;;11.55;5.15;;;;;;;-5.23;100.00;99979.72;5131869;28;20053;-62
2022/03/06 05:01:42;;;;;;;11.57;6.07;;;;;;;-5.25;100.00;99966.59;5131735;28;20501;-62
2022/03/06 05:04:09;;;;;;;8.45;4.68;;;;;;;-5.18;100.00;99962.94;5131748;28;20051;-62
2022/03/06 05:06:35;;;;;;;10.73;5.97;;;;;;;-5.13;100.00;99963.03;5131718;28;20050;-62
2022/03/06 05:09:02;;;;;;;12.07;4.68;;;;;;;-5.09;100.00;99961.50;5131568;28;20047;-62
2022/03/06 05:11:28;;;;;;;8.75;4.65;;;;;;;-5.04;100.00;99957.03;5130663;27;20535;-62
2022/03/06 05:13:55;;;;;;;10.18;4.90;;;;;;;-5.04;100.00;99942.84;5131676;28;20503;-62
2022/03/06 05:16:21;;;;;;;9.73;5.10;;;;;;;-5.03;100.00;99928.41;5131838;28;20417;-62
2022/03/06 05:18:48;;;;;;;9.75;5.65;;;;;;;-4.99;100.00;99933.06;5131449;28;20130;-62
2022/03/06 05:21:14;;;;;;;9.23;5.15;;;;;;;-5.00;100.00;99919.91;5131538;28;20054;-62
2022/03/06 05:23:40;;;;;;;8.85;4.80;;;;;;;-4.94;100.00;99918.16;5131619;28;20429;-62
2022/03/06 05:26:07;;;;;;;8.95;5.07;;;;;;;-4.97;100.00;99912.22;5131635;28;20145;-62
2022/03/06 05:28:34;;;;;;;9.95;5.18;;;;;;;-4.88;100.00;99914.50;5131406;28;20077;-62
2022/03/06 05:31:01;;;;;;;8.63;4.88;;;;;;;-4.48;100.00;99932.19;5132090;28;20076;-62
2022/03/06 05:33:27;;;;;;;11.20;4.90;;;;;;;-3.64;100.00;99931.84;5131541;28;20477;-62
2022/03/06 05:35:53;;;;;;;6.97;4.20;;;;;;;-2.81;100.00;99888.56;5131722;28;20058;-62
2022/03/06 05:38:19;;;;;;;8.40;5.07;;;;;;;-1.81;100.00;99780.94;5131338;28;20055;-63
2022/03/06 05:40:46;;;;;;;12.98;4.75;;;;;;;-0.74;100.00;99550.03;5131443;28;20061;-63
2022/03/06 05:43:13;;;;;;;10.48;5.13;;;;;;;0.10;100.00;99209.34;5131375;28;20336;-63
2022/03/06 05:45:39;;;;;;;6.40;4.57;;;;;;;1.04;100.00;98952.56;5130874;28;20517;-63
2022/03/06 05:48:06;;;;;;;10.15;4.30;;;;;;;1.67;100.00;98782.34;5131403;28;20501;-63
2022/03/06 05:50:32;;;;;;;9.40;4.57;;;;;;;2.06;100.00;98773.34;5131147;28;20057;-63
2022/03/06 05:52:58;;;;;;;5.90;4.35;;;;;;;1.10;100.00;98810.13;5131147;28;20051;-63
2022/03/06 05:55:25;;;;;;;9.73;4.53;;;;;;;0.60;100.00;98827.34;5130918;28;20047;-63
2022/03/06 05:57:51;;;;;;;10.82;4.32;;;;;;;0.22;100.00;98816.09;5131392;28;20104;-63
2022/03/06 06:00:18;;;;;;;6.85;4.38;;;;;;;0.59;100.00;98795.25;5130856;28;20057;-63
2022/03/06 06:02:44;;;;;;;15.48;4.65;;;;;;;1.48;100.00;98796.16;5130936;28;20129;-64
2022/03/06 06:05:11;;;;;;;5.85;4.25;;;;;;;2.42;100.00;98812.78;5130761;28;20528;-64
2022/03/06 06:07:38;;;;;;;11.75;3.97;;;;;;;2.97;100.00;98860.81;5130958;28;20051;-64
2022/03/06 06:10:05;;;;;;;7.03;4.00;;;;;;;3.47;100.00;98907.06;5130442;28;20104;-64
2022/03/06 06:12:32;;;;;;;7.05;3.88;;;;;;;3.98;100.00;98948.63;5130730;28;20055;-64
2022/03/06 06:14:58;;;;;;;6.32;3.40;;;;;;;4.46;100.00;98993.56;5130866;28;20103;-64
2022/03/06 06:17:24;;;;;;;11.23;3.65;;;;;;;4.78;100.00;99029.31;5130648;28;20053;-64
2022/03/06 06:19:50;;;;;;;5.35;3.85;;;;;;;4.87;100.00;99072.72;5130930;28;20399;-65
2022/03/06 06:22:17;;;;;;;9.18;4.25;;;;;;;5.24;100.00;99081.09;5130433;27;20059;-65
2022/03/06 06:24:44;;;;;;;8.65;4.05;;;;;;;5.24;100.00;99100.91;5130926;28;20196;-65
2022/03/06 06:27:11;;;;;;;5.35;3.83;;;;;;;5.61;100.00;99112.78;5130466;28;20047;-65
2022/03/06 06:29:37;;;;;;;7.65;3.88;;;;;;;5.81;100.00;99121.25;5131021;28;20436;-65
2022/03/06 06:32:04;;;;;;;6.93;4.13;;;;;;;6.08;100.00;99134.31;5130419;28;20057;-65
2022/03/06 06:34:30;;;;;;;6.95;4.28;;;;;;;6.28;100.00;99157.16;5130607;28;20047;-65
2022/03/06 06:36:58;;;;;;;13.25;4.78;;;;;;;6.49;100.00;99162.53;5130124;28;20133;-65
2022/03/06 06:39:25;;;;;;;7.53;4.13;;;;;;;6.79;100.00;99163.16;5130386;28;20055;-65
2022/03/06 06:41:52;;;;;;;5.40;3.70;;;;;;;6.93;100.00;99170.19;5130523;28;20517;-65
2022/03/06 06:44:19;;;;;;;12.07;4.85;;;;;;;7.29;100.00;99172.91;5130260;28;20074;-65
2022/03/06 06:46:46;;;;;;;4.70;4.05;;;;;;;7.51;100.00;99185.28;5130488;28;20046;-66
2022/03/06 06:49:12;;;;;;;6.38;4.10;;;;;;;7.65;100.00;99190.38;5130211;28;20047;-66
2022/03/06 06:51:38;;;;;;;6.80;4.97;;;;;;;7.43;100.00;99199.03;5130307;28;20535;-66
2022/03/06 06:54:05;;;;;;;9.18;4.78;;;;;;;7.68;100.00;99200.59;5130330;28;20087;-66
2022/03/06 06:56:32;;;;;;;8.05;5.25;;;;;;;7.86;100.00;99205.78;5130573;28;20049;-66
2022/03/06 06:58:58;;;;;;;9.50;5.70;;;;;;;7.92;100.00;99201.66;5130125;28;20071;-66
2022/03/06 07:01:25;;;;;;;9.90;6.43;;;;;;;8.00;100.00;99212.47;5130118;28;20559;-66
2022/03/06 07:03:51;;;;;;;13.82;5.97;;;;;;;8.40;100.00;99208.91;5130008;28;20141;-66
2022/03/06 07:06:17;;;;;;;9.82;6.60;;;;;;;8.31;98.81;99221.09;5130097;28;20054;-66
2022/03/06 07:08:44;;;;;;;18.88;5.38;;;;;;;8.51;100.00;99214.66;5130172;28;20054;-66
2022/03/06 07:11:10;;;;;;;11.77;4.75;;;;;;;8.33;99.16;99227.81;5129517;28;20054;-66
2022/03/06 07:13:37;;;;;;;5.55;4.85;;;;;;;8.74;97.74;99217.59;5130250;28;20051;-66
2022/03/06 07:16:03;;;;;;;17.95;5.05;;;;;;;8.78;96.52;99229.41;5129809;28;20055;-66
2022/03/06 07:18:30;;;;;;;12.75;4.97;;;;;;;8.83;96.19;99228.34;5129909;28;20051;-66
2022/03/06 07:20:56;;;;;;;10.77;4.25;;;;;;;8.99;96.90;99220.16;5129914;28;20472;-66
2022/03/06 07:23:22;;;;;;;11.88;4.85;;;;;;;8.83;93.23;99226.44;5130280;28;20047;-66
2022/03/06 07:25:48;;;;;;;7.55;4.13;;;;;;;8.56;96.92;99227.25;5129707;28;20055;-66
2022/03/06 07:28:15;;;;;;;7.50;3.83;;;;;;;8.86;96.42;99223.00;5130342;28;20058;-66
2022/03/06 07:30:42;;;;;;;13.00;4.65;;;;;;;9.17;95.10;99235.88;5130098;28;20047;-66
2022/03/06 07:33:08;;;;;;;6.80;4.40;;;;;;;9.32;94.27;99233.47;5130073;27;20522;-66
2022/03/06 07:35:34;;;;;;;5.50;3.53;;;;;;;9.56;92.50;99238.75;5132931;28;20067;-66
2022/03/06 07:38:00;;;;;;;13.40;4.63;;;;;;;9.64;92.16;99236.97;5133265;28;20055;-66
2022/03/06 07:40:26;;;;;;;7.65;4.20;;;;;;;9.90;91.25;99230.91;5133358;28;20512;-66
2022/03/06 07:42:53;;;;;;;7.00;3.70;;;;;;;9.89;90.67;99232.81;5133354;28;20417;-66
2022/03/06 07:45:19;;;;;;;5.60;3.58;;;;;;;9.92;88.42;99236.00;5133119;28;20530;-65
2022/03/06 07:47:46;;;;;;;7.20;3.38;;;;;;;9.79;90.76;99227.13;5133082;28;20047;-64
2022/03/06 07:50:14;;;;;;;6.13;3.13;;;;;;;9.77;90.12;99224.75;5133458;28;20119;-64
2022/03/06 07:52:41;;;;;;;12.18;3.42;;;;;;;9.81;89.18;99220.13;5132944;28;20051;-65
2022/03/06 07:55:08;;;;;;;6.15;3.33;;;;;;;9.71;89.14;99225.38;5133323;28;20058;-64
2022/03/06 07:57:35;;;;;;;7.45;3.40;;;;;;;9.83;89.17;99222.50;5132952;28;20043;-64
2022/03/06 08:00:01;;;;;;;4.63;2.95;;;;;;;9.82;87.77;99224.47;5133192;28;20051;-65
2022/03/06 08:02:27;;;;;;;9.10;3.13;;;;;;;9.87;88.40;99224.19;5132935;28;20136;-65
2022/03/06 08:04:54;;;;;;;4.47;3.20;;;;;;;9.94;87.92;99225.50;5132809;28;20051;-65
2022/03/06 08:07:21;;;;;;;8.45;3.30;;;;;;;9.37;87.34;99220.34;5132698;28;20078;-65
2022/03/06 08:09:47;;;;;;;9.15;3.38;;;;;;;9.28;89.09;99221.66;5131960;28;20058;-65
2022/03/06 08:12:13;;;;;;;7.20;3.22;;;;;;;9.33;89.74;99221.38;5132837;28;20055;-65
2022/03/06 08:14:39;;;;;;;9.48;3.10;;;;;;;9.47;90.41;99220.94;5132552;28;20062;-65
2022/03/06 08:17:06;;;;;;;6.63;2.83;;;;;;;9.60;89.49;99217.72;5133002;28;20047;-64
2022/03/06 08:19:32;;;;;;;7.10;2.95;;;;;;;9.32;87.73;99223.31;5132569;28;20047;-64
2022/03/06 08:21:59;;;;;;;11.63;3.38;;;;;;;9.17;90.16;99214.00;5132989;28;20092;-64
2022/03/06 08:24:25;;;;;;;6.30;2.72;;;;;;;9.31;90.47;99204.53;5132526;28;20047;-65
2022/03/06 08:26:51;;;;;;;7.22;2.80;;;;;;;8.78;91.30;99204.03;5132832;28;20074;-65
2022/03/06 08:29:18;;;;;;;6.15;3.38;;;;;;;8.55;94.01;99204.63;5132364;28;20100;-65
2022/03/06 08:31:44;;;;;;;7.95;3.30;;;;;;;8.67;93.82;99201.03;5132495;28;20054;-65
2022/03/06 08:34:10;;;;;;;12.95;2.75;;;;;;;8.88;93.35;99196.09;5132533;28;20160;-65
2022/03/06 08:36:38;;;;;;;9.93;3.03;;;;;;;9.10;91.83;99191.16;5132253;28;20055;-65
2022/03/06 08:39:05;;;;;;;8.98;2.83;;;;;;;9.20;89.85;99198.81;5132350;28;20043;-65
2022/03/06 08:41:32;;;;;;;9.10;2.63;;;;;;;9.08;89.89;99194.22;5132137;28;20138;-65
2022/03/06 08:43:58;;;;;;;6.68;2.92;;;;;;;9.29;89.47;99187.69;5132359;28;20047;-65
2022/03/06 08:46:24;;;;;;;12.77;3.38;;;;;;;9.29;89.02;99187.69;5130693;27;20506;-65
2022/03/06 08:48:50;;;;;;;5.68;3.00;;;;;;;9.41;89.69;99191.09;5132467;28;20054;-65
2022/03/06 08:51:17;;;;;;;6.22;2.95;;;;;;;9.43;88.96;99188.81;5132134;28;20057;-65
2022/03/06 08:53:43;;;;;;;5.40;2.80;;;;;;;9.60;89.02;99184.88;5132355;28;20051;-64
2022/03/06 08:56:10;;;;;;;6.07;2.95;;;;;;;9.41;88.96;99185.63;5132196;28;20065;-65
2022/03/06 08:58:36;;;;;;;10.30;3.53;;;;;;;9.33;89.14;99180.34;5131867;28;20051;-65
2022/03/06 09:01:03;;;;;;;7.47;3.20;;;;;;;8.84;90.93;99175.28;5132002;28;20047;-65
2022/03/06 09:03:29;;;;;;;9.80;3.03;;;;;;;8.81;92.53;99159.59;5131783;28;20053;-65
2022/03/06 09:05:56;;;;;;;8.10;2.90;;;;;;;8.54;93.61;99162.03;5132006;28;20470;-65
2022/03/06 09:08:22;;;;;;;7.70;3.05;;;;;;;8.57;94.73;99155.88;5131768;28;20532;-65
2022/03/06 09:10:48;;;;;;;7.35;3.80;;;;;;;8.65;94.63;99151.38;5131525;28;20043;-65
2022/03/06 09:13:15;;;;;;;6.82;2.92;;;;;;;8.81;93.17;99154.13;5132144;28;20043;-65
2022/03/06 09:15:41;;;;;;;9.82;3.25;;;;;;;8.52;93.64;99145.19;5132402;28;20051;-65
2022/03/06 09:18:08;;;;;;;7.30;3.08;;;;;;;8.57;95.86;99153.16;5131792;28;20051;-65
2022/03/06 09:20:34;;;;;;;6.18;3.00;;;;;;;8.76;95.15;99141.50;5132206;28;20051;-65
2022/03/06 09:23:01;;;;;;;12.30;3.45;;;;;;;8.99;94.15;99129.94;5131792;28;20142;-67
2022/03/06 09:25:32;;;;;;;6.07;3.03;;;;;;;8.80;93.62;99141.59;5131458;28;20058;-66
2022/03/06 09:27:59;;;;;;;6.35;3.35;;;;;;;8.58;93.12;99137.53;5131574;28;20047;-66
2022/03/06 09:30:26;;;;;;;12.25;3.30;;;;;;;8.39;97.61;99128.09;5131642;28;20057;-65
2022/03/06 09:32:52;;;;;;;6.05;2.83;;;;;;;8.44;95.24;99127.84;5131435;28;20425;-65
2022/03/06 09:35:18;;;;;;;11.30;3.50;;;;;;;8.23;94.27;99136.25;5131659;28;20429;-66
2022/03/06 09:37:44;;;;;;;7.53;3.22;;;;;;;8.20;97.26;99130.69;5132030;28;20440;-65
2022/03/06 09:40:12;;;;;;;5.85;3.28;;;;;;;8.08;95.96;99126.06;5131689;28;20047;-66
2022/03/06 09:42:38;;;;;;;7.90;3.03;;;;;;;8.30;95.85;99123.91;5131694;28;20577;-66
2022/03/06 09:45:08;;;;;;;6.70;3.05;;;;;;;8.41;95.93;99125.00;5131360;28;20054;-66
2022/03/06 09:47:36;;;;;;;9.77;3.03;;;;;;;8.32;95.41;99125.13;5131439;28;20096;-66
2022/03/06 09:50:03;;;;;;;6.15;3.35;;;;;;;8.01;95.42;99129.41;5131312;28;20054;-65
2022/03/06 09:52:29;;;;;;;7.18;3.03;;;;;;;7.87;98.75;99125.50;5131299;28;20051;-66
2022/03/06 09:54:56;;;;;;;5.30;3.42;;;;;;;7.76;96.84;99125.19;5131082;28;20541;-65
2022/03/06 09:57:22;;;;;;;11.48;3.63;;;;;;;7.60;99.47;99110.69;5130540;27;20068;-65
2022/03/06 09:59:49;;;;;;;5.72;3.22;;;;;;;7.45;96.44;99118.47;5131118;28;20059;-65
2022/03/06 10:02:16;;;;;;;8.10;3.00;;;;;;;7.33;100.00;99113.06;5130874;28;20047;-65
2022/03/06 10:04:43;;;;;;;6.25;3.30;;;;;;;7.44;100.00;99097.00;5131297;28;20051;-65
2022/03/06 10:07:11;;;;;;;10.70;3.17;;;;;;;7.42;100.00;99104.72;5131306;28;20055;-65
2022/03/06 10:09:44;;;;;;;10.70;3.38;;;;;;;7.49;100.00;99105.72;5130565;28;20058;-65
2022/03/06 10:12:19;;;;;;;5.97;3.33;;;;;;;7.41;100.00;99101.19;5130912;28;20502;-65
2022/03/06 10:14:45;;;;;;;9.52;3.45;;;;;;;7.13;100.00;99098.44;5130538;28;20047;-65
2022/03/06 10:17:13;;;;;;;10.85;3.10;;;;;;;6.97;100.00;99092.88;5130897;28;20043;-65
2022/03/06 10:19:52;;;;;;;6.22;3.00;;;;;;;6.86;100.00;99083.56;5130705;28;20104;-65
2022/03/06 10:22:19;;;;;;;6.40;3.17;;;;;;;7.00;100.00;99077.78;5130792;28;20080;-65
2022/03/06 10:24:49;;;;;;;8.60;3.60;;;;;;;6.94;100.00;99079.94;5130529;28;20043;-65
2022/03/06 10:27:16;;;;;;;6.50;3.50;;;;;;;6.95;100.00;99075.28;5130993;28;20076;-66
2022/03/06 10:29:42;;;;;;;10.40;3.45;;;;;;;6.90;100.00;99072.75;5130548;28;20053;-65
2022/03/06 10:32:08;;;;;;;11.65;3.00;;;;;;;6.67;100.00;99067.03;5130756;28;20047;-65
2022/03/06 10:34:36;;;;;;;8.98;3.53;;;;;;;6.47;100.00;99050.44;5130397;28;20043;-65
2022/03/06 10:37:04;;;;;;;4.72;3.25;;;;;;;6.50;100.00;99052.50;5130776;28;20410;-65
2022/03/06 10:39:42;;;;;;;3.78;3.10;;;;;;;6.42;100.00;99047.94;5130452;28;20053;-65
2022/03/06 10:42:10;;;;;;;6.22;3.47;;;;;;;6.64;100.00;99043.97;5130883;28;20055;-65
2022/03/06 10:44:43;;;;;;;4.00;2.88;;;;;;;6.63;100.00;99041.56;5130498;28;20071;-65
2022/03/06 10:47:09;;;;;;;7.90;3.63;;;;;;;6.65;100.00;99033.88;5130272;28;20047;-65
2022/03/06 10:49:36;;;;;;;6.00;3.50;;;;;;;6.58;100.00;99040.66;5130511;28;20047;-65
2022/03/06 10:52:16;;;;;;;10.43;3.42;;;;;;;6.74;100.00;99029.88;5130188;28;20066;-65
2022/03/06 10:54:50;;;;;;;5.22;3.47;;;;;;;6.75;100.00;99020.56;5130397;28;20058;-65
2022/03/06 10:57:17;;;;;;;4.18;3.38;;;;;;;6.67;100.00;99012.53;5130181;28;20054;-65
2022/03/06 10:59:44;;;;;;;7.38;3.42;;;;;;;6.79;100.00;99010.56;5130152;28;20126;-65
2022/03/06 11:02:12;;;;;;;7.88;3.25;;;;;;;6.98;100.00;99004.50;5130128;28;20051;-65
2022/03/06 11:04:39;;;;;;;13.05;3.53;;;;;;;6.78;100.00;99002.75;5129930;28;20261;-65
2022/03/06 11:07:07;;;;;;;6.18;3.40;;;;;;;6.67;100.00;98996.97;5130519;28;20052;-65
2022/03/06 11:09:35;;;;;;;14.10;3.72;;;;;;;6.59;100.00;98995.16;5131186;27;20596;-64
2022/03/06 11:12:03;;;;;;;5.07;3.90;;;;;;;6.60;100.00;98983.94;5133741;28;20051;-65
2022/03/06 11:14:31;;;;;;;6.70;3.63;;;;;;;6.55;100.00;98986.09;5133561;28;20055;-65
2022/03/06 11:16:57;;;;;;;8.50;3.50;;;;;;;6.52;100.00;98982.13;5133845;28;20112;-64
2022/03/06 11:19:25;;;;;;;9.02;3.30;;;;;;;6.41;100.00;98972.03;5133546;28;20058;-64
2022/03/06 11:21:59;;;;;;;5.18;3.42;;;;;;;6.45;100.00;98971.00;5133509;28;20468;-65
2022/03/06 11:24:29;;;;;;;4.70;3.15;;;;;;;6.17;100.00;98967.41;5133733;28;20055;-64
2022/03/06 11:27:20;;;;;;;6.10;3.78;;;;;;;5.96;100.00;98951.16;5133589;28;20549;-64